createdAt,value
2023-03-16T00:00:23.327Z,74.36
2023-03-16T00:02:50.825Z,75.91
2023-03-16T00:05:18.306Z,73.22
2023-03-16T00:07:47.063Z,72.60
2023-03-16T00:10:14.712Z,72.99
2023-03-16T00:12:43.583Z,73.10
2023-03-16T00:15:11.550Z,74.03
2023-03-16T00:17:39.138Z,73.91
2023-03-16T00:20:07.713Z,74.33
2023-03-16T00:22:35.225Z,75.46
2023-03-16T00:25:04.598Z,74.77
2023-03-16T00:27:32.113Z,75.25
2023-03-16T00:29:59.517Z,74.92
2023-03-16T00:32:29.529Z,75.12
2023-03-16T00:34:57.414Z,74.53
2023-03-16T00:37:26.856Z,74.20
2023-03-16T00:39:56.218Z,75.26
2023-03-16T00:42:27.932Z,75.15
2023-03-16T00:44:57.466Z,76.70
2023-03-16T00:47:25.996Z,76.94
2023-03-16T00:49:53.412Z,76.72
2023-03-16T00:52:22.200Z,77.67
2023-03-16T00:54:50.218Z,77.46
2023-03-16T00:57:19.674Z,75.46
2023-03-16T00:59:49.418Z,75.13
2023-03-16T01:02:19.887Z,74.11
2023-03-16T01:04:47.358Z,74.13
2023-03-16T01:07:15.612Z,74.84
2023-03-16T01:09:43.780Z,74.14
2023-03-16T01:12:13.795Z,74.60
2023-03-16T01:14:41.833Z,75.54
2023-03-16T01:17:11.094Z,74.84
2023-03-16T01:19:38.859Z,75.67
2023-03-16T01:22:07.081Z,76.60
2023-03-16T01:24:35.651Z,75.48
2023-03-16T01:27:04.389Z,78.01
2023-03-16T01:29:33.000Z,74.73
2023-03-16T01:32:00.649Z,75.47
2023-03-16T01:34:29.385Z,73.89
2023-03-16T01:36:57.203Z,73.18
2023-03-16T01:39:24.680Z,74.04
2023-03-16T01:41:52.427Z,75.79
2023-03-16T01:44:24.269Z,75.11
2023-03-16T01:46:51.862Z,75.99
2023-03-16T01:49:23.753Z,74.11
2023-03-16T01:51:56.313Z,73.76
2023-03-16T01:54:29.032Z,74.83
2023-03-16T01:57:04.730Z,74.78
2023-03-16T01:59:36.697Z,75.48
2023-03-16T02:02:04.703Z,76.82
2023-03-16T02:04:46.257Z,75.76
2023-03-16T02:07:17.954Z,75.76
2023-03-16T02:09:47.862Z,77.05
2023-03-16T02:12:18.778Z,75.78
2023-03-16T02:14:46.602Z,75.57
2023-03-16T02:17:16.048Z,76.00
2023-03-16T02:19:52.594Z,74.95
2023-03-16T02:22:24.909Z,74.43
2023-03-16T02:24:53.105Z,73.63
2023-03-16T02:27:28.307Z,74.14
2023-03-16T02:30:03.199Z,72.32
2023-03-16T02:32:32.576Z,73.27
2023-03-16T02:35:02.037Z,75.10
2023-03-16T02:37:30.088Z,72.52
2023-03-16T02:39:57.506Z,72.55
2023-03-16T02:42:27.602Z,72.88
2023-03-16T02:44:59.017Z,72.14
2023-03-16T02:47:33.255Z,74.13
2023-03-16T02:50:00.730Z,72.26
2023-03-16T02:52:28.188Z,72.66
2023-03-16T02:54:55.591Z,73.60
2023-03-16T02:57:23.005Z,73.43
2023-03-16T02:59:50.445Z,72.31
2023-03-16T03:02:19.215Z,72.17
2023-03-16T03:04:47.003Z,72.79
2023-03-16T03:07:15.739Z,72.19
2023-03-16T03:09:43.417Z,72.77
2023-03-16T03:12:13.047Z,73.13
2023-03-16T03:14:40.953Z,72.73
2023-03-16T03:17:10.315Z,72.24
2023-03-16T03:19:39.100Z,72.65
2023-03-16T03:22:07.200Z,73.49
2023-03-16T03:24:35.414Z,72.39
2023-03-16T03:27:05.741Z,71.94
2023-03-16T03:29:35.163Z,72.09
2023-03-16T03:32:02.934Z,71.77
2023-03-16T03:34:30.452Z,73.22
2023-03-16T03:36:59.868Z,73.22
2023-03-16T03:39:27.489Z,72.50
2023-03-16T03:41:55.312Z,72.47
2023-03-16T03:44:23.209Z,73.15
2023-03-16T03:46:51.596Z,72.28
2023-03-16T03:49:19.078Z,73.08
2023-03-16T03:51:46.984Z,72.13
2023-03-16T03:54:15.708Z,73.64
2023-03-16T03:56:43.189Z,74.00
2023-03-16T03:59:10.867Z,73.42
2023-03-16T04:01:38.354Z,72.94
2023-03-16T04:04:05.754Z,73.66
2023-03-16T04:06:33.199Z,73.73
2023-03-16T04:09:00.997Z,72.61
2023-03-16T04:11:29.774Z,73.79
2023-03-16T04:13:57.198Z,72.79
2023-03-16T04:16:26.959Z,72.79
2023-03-16T04:18:54.497Z,73.24
2023-03-16T04:21:23.252Z,74.29
2023-03-16T04:23:54.205Z,74.39
2023-03-16T04:26:22.528Z,74.63
2023-03-16T04:28:52.567Z,73.63
2023-03-16T04:31:20.197Z,73.04
2023-03-16T04:33:47.814Z,73.53
2023-03-16T04:36:15.582Z,74.11
2023-03-16T04:38:43.040Z,74.54
2023-03-16T04:41:11.351Z,74.87
2023-03-16T04:43:38.777Z,74.46
2023-03-16T04:46:08.061Z,74.95
2023-03-16T04:48:35.841Z,74.88
2023-03-16T04:51:03.876Z,75.29
2023-03-16T04:53:32.472Z,73.66
2023-03-16T04:56:00.251Z,73.75
2023-03-16T04:58:27.985Z,73.39
2023-03-16T05:00:56.543Z,73.93
2023-03-16T05:03:25.502Z,74.43
2023-03-16T05:05:53.014Z,74.35
2023-03-16T05:08:20.481Z,73.32
2023-03-16T05:10:48.496Z,73.27
2023-03-16T05:13:15.941Z,73.60
2023-03-16T05:15:43.651Z,73.99
2023-03-16T05:18:11.100Z,74.44
2023-03-16T05:20:39.923Z,74.51
2023-03-16T05:23:08.267Z,74.01
2023-03-16T05:25:35.798Z,74.51
2023-03-16T05:28:03.197Z,73.56
2023-03-16T05:30:31.164Z,73.20
2023-03-16T05:32:58.750Z,72.67
2023-03-16T05:35:26.439Z,72.76
2023-03-16T05:37:55.247Z,73.28
2023-03-16T05:40:23.234Z,73.10
2023-03-16T05:42:55.896Z,73.28
2023-03-16T05:45:23.833Z,73.33
2023-03-16T05:47:51.779Z,73.39
2023-03-16T05:50:19.433Z,72.64
2023-03-16T05:52:48.280Z,72.48
2023-03-16T05:55:19.056Z,72.67
2023-03-16T05:57:46.495Z,71.95
2023-03-16T06:00:16.709Z,73.38
2023-03-16T06:02:46.848Z,72.08
2023-03-16T06:05:14.441Z,73.21
2023-03-16T06:07:42.557Z,72.21
2023-03-16T06:10:11.445Z,72.06
2023-03-16T06:12:41.196Z,73.07
2023-03-16T06:15:11.287Z,72.50
2023-03-16T06:17:40.133Z,73.32
2023-03-16T06:20:12.921Z,72.71
2023-03-16T06:22:41.321Z,72.68
2023-03-16T06:25:10.501Z,72.68
2023-03-16T06:27:37.935Z,71.09
2023-03-16T06:30:08.947Z,71.50
2023-03-16T06:32:37.956Z,71.18
2023-03-16T06:35:06.553Z,71.13
2023-03-16T06:37:34.205Z,70.77
2023-03-16T06:40:01.869Z,70.65
2023-03-16T06:42:29.299Z,71.36
2023-03-16T06:44:56.768Z,71.42
2023-03-16T06:47:26.707Z,70.94
2023-03-16T06:49:55.266Z,71.22
2023-03-16T06:52:23.148Z,69.98
2023-03-16T06:54:51.026Z,69.50
2023-03-16T06:57:18.573Z,69.91
2023-03-16T06:59:46.019Z,70.72
2023-03-16T07:02:14.945Z,70.38
2023-03-16T07:04:44.263Z,69.76
2023-03-16T07:07:12.216Z,69.69
2023-03-16T07:09:41.765Z,70.00
2023-03-16T07:12:10.338Z,70.48
2023-03-16T07:14:38.054Z,69.18
2023-03-16T07:17:06.495Z,68.93
2023-03-16T07:19:33.909Z,68.47
2023-03-16T07:22:05.013Z,67.99
2023-03-16T07:24:32.731Z,68.41
2023-03-16T07:27:00.201Z,68.13
2023-03-16T07:29:27.585Z,67.57
2023-03-16T07:31:55.182Z,66.95
2023-03-16T07:34:22.570Z,66.11
2023-03-16T07:36:52.721Z,65.66
2023-03-16T07:39:21.524Z,66.07
2023-03-16T07:41:49.014Z,64.96
2023-03-16T07:44:16.576Z,63.95
2023-03-16T07:46:44.011Z,64.67
2023-03-16T07:49:12.227Z,64.89
2023-03-16T07:51:40.226Z,63.17
2023-03-16T07:54:07.648Z,63.93
2023-03-16T07:56:48.469Z,63.79
2023-03-16T07:59:16.557Z,64.36
2023-03-16T08:01:44.698Z,64.05
2023-03-16T08:04:13.168Z,64.63
2023-03-16T08:06:40.576Z,63.28
2023-03-16T08:09:08.142Z,63.46
2023-03-16T08:11:36.935Z,62.28
2023-03-16T08:14:05.419Z,63.80
2023-03-16T08:16:32.972Z,62.95
2023-03-16T08:19:01.266Z,62.19
2023-03-16T08:21:30.308Z,62.37
2023-03-16T08:23:57.769Z,60.84
2023-03-16T08:26:26.515Z,61.24
2023-03-16T08:28:55.450Z,60.85
2023-03-16T08:31:23.561Z,60.80
2023-03-16T08:33:51.762Z,61.53
2023-03-16T08:36:20.989Z,60.21
2023-03-16T08:39:03.755Z,61.40
2023-03-16T08:41:34.705Z,59.27
2023-03-16T08:44:03.675Z,60.49
2023-03-16T08:46:31.640Z,60.70
2023-03-16T08:48:59.122Z,59.50
2023-03-16T08:51:26.690Z,58.33
2023-03-16T08:53:54.120Z,57.77
2023-03-16T08:56:21.596Z,56.84
2023-03-16T08:58:50.562Z,55.82
2023-03-16T09:01:20.449Z,55.53
2023-03-16T09:03:48.341Z,56.87
2023-03-16T09:06:17.632Z,54.95
2023-03-16T09:08:46.030Z,54.70
2023-03-16T09:11:15.594Z,56.44
2023-03-16T09:13:44.672Z,56.39
2023-03-16T09:16:13.792Z,54.81
2023-03-16T09:18:43.250Z,54.95
2023-03-16T09:21:13.163Z,54.06
2023-03-16T09:23:42.913Z,53.42
2023-03-16T09:26:12.508Z,53.40
2023-03-16T09:28:42.029Z,52.39
2023-03-16T09:31:11.655Z,52.72
2023-03-16T09:33:39.943Z,52.90
2023-03-16T09:36:11.459Z,52.62
2023-03-16T09:38:39.393Z,52.45
2023-03-16T09:41:10.636Z,52.69
2023-03-16T09:43:49.295Z,52.22
2023-03-16T09:46:25.850Z,50.71
2023-03-16T09:48:55.733Z,50.82
2023-03-16T09:51:38.014Z,50.41
2023-03-16T09:54:15.551Z,50.53
2023-03-16T09:56:44.624Z,49.89
2023-03-16T09:59:14.293Z,50.11
2023-03-16T10:01:53.650Z,48.92
2023-03-16T10:04:39.613Z,48.69
2023-03-16T10:07:22.108Z,47.39
2023-03-16T10:09:57.097Z,46.96
2023-03-16T10:12:30.795Z,46.87
2023-03-16T10:15:05.155Z,46.66
2023-03-16T10:17:39.894Z,46.04
2023-03-16T10:20:12.960Z,46.69
2023-03-16T10:22:45.623Z,44.48
2023-03-16T10:25:20.943Z,46.87
2023-03-16T10:27:49.141Z,45.58
2023-03-16T10:30:24.565Z,44.29
2023-03-16T10:32:52.619Z,46.20
2023-03-16T10:35:32.163Z,46.70
2023-03-16T10:38:01.130Z,46.42
2023-03-16T10:40:33.019Z,47.59
2023-03-16T10:43:06.770Z,48.04
2023-03-16T10:45:36.564Z,46.75
2023-03-16T10:48:08.860Z,47.23
2023-03-16T10:50:36.954Z,46.76
2023-03-16T10:53:05.706Z,46.31
2023-03-16T10:55:43.568Z,45.74
2023-03-16T10:58:11.095Z,46.06
2023-03-16T11:00:43.496Z,45.95
2023-03-16T11:03:23.049Z,47.38
2023-03-16T11:05:58.771Z,44.62
2023-03-16T11:08:32.345Z,45.18
2023-03-16T11:11:03.671Z,44.83
2023-03-16T11:13:34.866Z,45.28
2023-03-16T11:16:06.698Z,45.68
2023-03-16T11:18:38.595Z,45.25
2023-03-16T11:21:12.692Z,43.63
2023-03-16T11:23:49.696Z,43.52
2023-03-16T11:26:24.014Z,43.88
2023-03-16T11:28:59.244Z,45.33
2023-03-16T11:31:43.022Z,46.31
2023-03-16T11:34:17.830Z,45.67
2023-03-16T11:36:50.982Z,44.40
2023-03-16T11:39:31.709Z,43.63
2023-03-16T11:42:15.735Z,42.82
2023-03-16T11:44:52.522Z,43.21
2023-03-16T11:47:37.675Z,43.61
2023-03-16T11:50:15.634Z,43.94
2023-03-16T11:52:50.598Z,43.55
2023-03-16T11:55:29.109Z,44.28
2023-03-16T11:58:12.692Z,45.50
2023-03-16T12:00:53.382Z,45.16
2023-03-16T12:03:34.668Z,46.52
2023-03-16T12:06:22.099Z,46.79
2023-03-16T12:09:13.494Z,45.75
2023-03-16T12:11:50.375Z,44.67
2023-03-16T12:14:24.643Z,43.87
2023-03-16T12:16:57.477Z,44.47
2023-03-16T12:19:31.400Z,43.38
2023-03-16T12:22:08.781Z,42.84
2023-03-16T12:24:42.442Z,43.31
2023-03-16T12:27:15.981Z,42.20
2023-03-16T12:29:56.855Z,41.54
2023-03-16T12:32:38.048Z,41.43
2023-03-16T12:35:20.280Z,42.12
2023-03-16T12:37:59.885Z,43.17
2023-03-16T12:40:39.589Z,42.42
2023-03-16T12:43:29.042Z,41.55
2023-03-16T12:46:04.404Z,40.66
2023-03-16T12:48:34.885Z,38.15
2023-03-16T12:51:04.992Z,39.73
2023-03-16T12:53:44.735Z,39.97
2023-03-16T12:56:15.192Z,40.99
2023-03-16T12:58:47.775Z,39.90
2023-03-16T13:01:18.478Z,39.75
2023-03-16T13:03:49.776Z,41.11
2023-03-16T13:06:23.409Z,41.62
2023-03-16T13:08:56.703Z,41.73
2023-03-16T13:11:24.203Z,42.91
2023-03-16T13:14:07.208Z,41.75
2023-03-16T13:16:37.499Z,41.67
2023-03-16T13:19:24.463Z,42.00
2023-03-16T13:22:04.355Z,41.34
2023-03-16T13:24:41.328Z,42.30
2023-03-16T13:27:22.291Z,42.46
2023-03-16T13:29:56.579Z,41.51
2023-03-16T13:32:28.525Z,41.52
2023-03-16T13:34:59.162Z,42.16
2023-03-16T13:37:29.409Z,40.09
2023-03-16T13:39:59.736Z,39.40
2023-03-16T13:42:31.477Z,39.22
2023-03-16T13:45:08.891Z,39.73
2023-03-16T13:47:36.836Z,39.33
2023-03-16T13:50:04.521Z,39.78
2023-03-16T13:52:34.488Z,37.48
2023-03-16T13:55:04.215Z,37.97
2023-03-16T13:57:36.946Z,36.93
2023-03-16T14:00:17.934Z,36.91
2023-03-16T14:02:47.205Z,36.66
2023-03-16T14:05:20.385Z,35.83
2023-03-16T14:07:50.909Z,36.94
2023-03-16T14:10:19.714Z,37.26
2023-03-16T14:12:54.732Z,36.70
2023-03-16T14:15:26.574Z,35.39
2023-03-16T14:17:54.468Z,37.83
2023-03-16T14:20:25.427Z,37.88
2023-03-16T14:22:53.877Z,37.51
2023-03-16T14:25:23.690Z,37.55
2023-03-16T14:27:59.789Z,38.74
2023-03-16T14:30:30.346Z,37.81
2023-03-16T14:33:00.533Z,38.46
2023-03-16T14:35:31.179Z,37.81
2023-03-16T14:38:19.360Z,36.36
2023-03-16T14:40:54.479Z,36.66
2023-03-16T14:43:27.974Z,35.70
2023-03-16T14:45:57.354Z,36.27
2023-03-16T14:48:25.055Z,35.88
2023-03-16T14:50:56.191Z,35.29
2023-03-16T14:53:24.631Z,35.41
2023-03-16T14:55:52.154Z,35.47
2023-03-16T14:58:19.587Z,34.53
2023-03-16T15:00:53.277Z,34.66
2023-03-16T15:03:32.999Z,35.59
2023-03-16T15:06:01.345Z,35.62
2023-03-16T15:08:32.817Z,35.17
2023-03-16T15:11:02.797Z,37.65
2023-03-16T15:13:52.633Z,37.18
2023-03-16T15:16:21.870Z,35.90
2023-03-16T15:18:51.860Z,36.43
2023-03-16T15:21:23.322Z,37.38
2023-03-16T15:23:51.344Z,36.93
2023-03-16T15:26:25.248Z,38.11
2023-03-16T15:28:52.928Z,37.74
2023-03-16T15:31:20.747Z,37.05
2023-03-16T15:33:48.254Z,37.55
2023-03-16T15:36:19.271Z,36.13
2023-03-16T15:38:48.318Z,35.01
2023-03-16T15:41:16.104Z,35.17
2023-03-16T15:43:44.998Z,34.29
2023-03-16T15:46:13.113Z,32.64
2023-03-16T15:48:40.764Z,33.65
2023-03-16T15:51:16.285Z,33.70
2023-03-16T15:53:49.821Z,33.34
2023-03-16T15:56:22.035Z,33.13
2023-03-16T15:58:49.664Z,33.16
2023-03-16T16:01:22.931Z,32.95
2023-03-16T16:03:53.708Z,33.18
2023-03-16T16:06:21.274Z,33.02
2023-03-16T16:08:50.043Z,33.75
2023-03-16T16:11:22.324Z,33.23
2023-03-16T16:13:50.455Z,34.49
2023-03-16T16:16:19.768Z,35.25
2023-03-16T16:18:48.375Z,35.16
2023-03-16T16:21:19.137Z,36.06
2023-03-16T16:23:47.799Z,35.73
2023-03-16T16:26:27.927Z,36.12
2023-03-16T16:28:59.481Z,37.77
2023-03-16T16:31:29.680Z,37.53
2023-03-16T16:33:58.964Z,37.75
2023-03-16T16:36:26.400Z,37.32
2023-03-16T16:38:56.955Z,37.72
2023-03-16T16:41:29.170Z,37.63
2023-03-16T16:43:57.878Z,38.48
2023-03-16T16:46:27.408Z,38.27
2023-03-16T16:49:00.094Z,37.42
2023-03-16T16:51:29.836Z,38.21
2023-03-16T16:53:59.573Z,37.53
2023-03-16T16:56:31.832Z,38.95
2023-03-16T16:59:02.379Z,39.15
2023-03-16T17:01:34.522Z,38.40
2023-03-16T17:04:03.337Z,38.94
2023-03-16T17:06:31.387Z,39.14
2023-03-16T17:08:58.814Z,39.05
2023-03-16T17:11:30.758Z,39.41
2023-03-16T17:14:00.112Z,38.16
2023-03-16T17:16:31.392Z,38.93
2023-03-16T17:18:59.781Z,39.07
2023-03-16T17:21:30.977Z,38.80
2023-03-16T17:23:58.602Z,38.58
2023-03-16T17:26:30.072Z,38.15
2023-03-16T17:29:00.596Z,38.86
2023-03-16T17:31:31.059Z,38.48
2023-03-16T17:33:59.422Z,38.21
2023-03-16T17:36:27.522Z,37.16
2023-03-16T17:38:56.047Z,38.16
2023-03-16T17:41:25.562Z,37.83
2023-03-16T17:43:56.660Z,37.79
2023-03-16T17:46:26.296Z,38.07
2023-03-16T17:48:55.634Z,37.79
2023-03-16T17:51:25.548Z,38.07
2023-03-16T17:53:53.829Z,38.01
2023-03-16T17:56:24.245Z,38.07
2023-03-16T17:58:57.093Z,38.97
2023-03-16T18:01:29.172Z,38.82
2023-03-16T18:03:57.153Z,38.45
2023-03-16T18:06:27.364Z,38.70
2023-03-16T18:08:54.826Z,38.24
2023-03-16T18:11:24.045Z,38.78
2023-03-16T18:13:53.057Z,39.03
2023-03-16T18:16:28.212Z,38.64
2023-03-16T18:18:59.154Z,38.52
2023-03-16T18:21:27.222Z,39.21
2023-03-16T18:23:55.763Z,38.73
2023-03-16T18:26:24.600Z,38.88
2023-03-16T18:28:53.391Z,38.02
2023-03-16T18:31:26.268Z,38.84
2023-03-16T18:33:56.338Z,39.00
2023-03-16T18:36:29.887Z,37.96
2023-03-16T18:38:59.510Z,39.05
2023-03-16T18:41:29.237Z,38.97
2023-03-16T18:43:58.984Z,39.12
2023-03-16T18:46:30.256Z,38.48
2023-03-16T18:48:59.980Z,40.38
2023-03-16T18:51:27.810Z,38.82
2023-03-16T18:53:55.306Z,39.60
2023-03-16T18:56:24.997Z,39.15
2023-03-16T18:58:53.490Z,40.74
2023-03-16T19:01:26.483Z,40.33
2023-03-16T19:03:56.786Z,42.44
2023-03-16T19:06:30.858Z,40.19
2023-03-16T19:09:03.945Z,40.33
2023-03-16T19:11:31.466Z,40.76
2023-03-16T19:13:58.874Z,41.09
2023-03-16T19:16:27.186Z,40.46
2023-03-16T19:18:56.040Z,39.36
2023-03-16T19:21:23.880Z,40.33
2023-03-16T19:23:58.096Z,41.81
2023-03-16T19:26:25.943Z,40.46
2023-03-16T19:28:53.496Z,39.79
2023-03-16T19:31:23.344Z,39.98
2023-03-16T19:33:52.471Z,41.44
2023-03-16T19:36:24.114Z,40.63
2023-03-16T19:38:52.461Z,40.36
2023-03-16T19:41:26.926Z,41.49
2023-03-16T19:43:56.437Z,42.45
2023-03-16T19:46:24.906Z,40.85
2023-03-16T19:48:52.538Z,42.61
2023-03-16T19:51:21.920Z,42.21
2023-03-16T19:53:49.546Z,41.33
2023-03-16T19:56:20.397Z,41.29
2023-03-16T19:58:50.653Z,41.54
2023-03-16T20:01:20.112Z,42.65
2023-03-16T20:03:49.315Z,42.76
2023-03-16T20:06:19.046Z,42.71
2023-03-16T20:08:48.650Z,43.00
2023-03-16T20:11:19.541Z,42.14
2023-03-16T20:13:47.726Z,41.21
2023-03-16T20:16:18.855Z,42.66
2023-03-16T20:18:56.598Z,42.91
2023-03-16T20:21:24.587Z,44.00
2023-03-16T20:23:54.504Z,42.56
2023-03-16T20:26:24.276Z,43.39
2023-03-16T20:28:52.766Z,43.31
2023-03-16T20:31:22.216Z,43.51
2023-03-16T20:33:52.018Z,43.34
2023-03-16T20:36:20.650Z,43.40
2023-03-16T20:38:48.512Z,43.63
2023-03-16T20:41:23.162Z,44.67
2023-03-16T20:43:51.631Z,44.75
2023-03-16T20:46:23.281Z,46.49
2023-03-16T20:48:50.815Z,44.71
2023-03-16T20:51:18.404Z,45.19
2023-03-16T20:53:47.585Z,46.00
2023-03-16T20:56:18.460Z,46.00
2023-03-16T20:58:47.871Z,45.45
2023-03-16T21:01:18.333Z,45.82
2023-03-16T21:03:48.315Z,45.64
2023-03-16T21:06:22.336Z,44.87
2023-03-16T21:08:51.161Z,45.13
2023-03-16T21:11:24.457Z,45.20
2023-03-16T21:13:52.165Z,47.48
2023-03-16T21:16:20.860Z,70.43
2023-03-16T21:18:49.103Z,68.30
2023-03-16T21:21:17.640Z,55.16
2023-03-16T21:23:46.080Z,59.80
2023-03-16T21:26:16.937Z,60.80
2023-03-16T21:28:56.548Z,59.66
2023-03-16T21:31:25.701Z,56.13
2023-03-16T21:33:54.740Z,58.69
2023-03-16T21:36:26.144Z,57.17
2023-03-16T21:38:54.485Z,56.28
2023-03-16T21:41:22.508Z,52.67
2023-03-16T21:43:51.713Z,53.64
2023-03-16T21:46:21.388Z,46.66
2023-03-16T21:48:50.783Z,47.94
2023-03-16T21:51:19.913Z,47.99
2023-03-16T21:53:49.645Z,49.61
2023-03-16T21:56:19.339Z,50.13
2023-03-16T21:58:47.873Z,50.20
2023-03-16T22:01:24.814Z,49.55
2023-03-16T22:03:54.067Z,50.21
2023-03-16T22:06:22.554Z,49.95
2023-03-16T22:08:51.199Z,51.02
2023-03-16T22:11:21.396Z,50.67
2023-03-16T22:13:49.407Z,51.51
2023-03-16T22:16:19.107Z,50.95
2023-03-16T22:18:49.802Z,52.88
2023-03-16T22:21:27.571Z,52.25
2023-03-16T22:23:55.723Z,51.54
2023-03-16T22:26:24.634Z,52.04
2023-03-16T22:28:52.592Z,51.19
2023-03-16T22:31:21.923Z,52.12
2023-03-16T22:33:51.107Z,52.04
2023-03-16T22:36:21.706Z,53.66
2023-03-16T22:38:53.696Z,53.33
2023-03-16T22:41:21.182Z,53.61
2023-03-16T22:43:48.676Z,54.53
2023-03-16T22:46:20.303Z,53.46
2023-03-16T22:48:47.954Z,54.50
2023-03-16T22:51:24.218Z,52.44
2023-03-16T22:53:54.047Z,53.90
2023-03-16T22:56:21.508Z,54.22
2023-03-16T22:58:51.872Z,53.91
2023-03-16T23:01:20.941Z,56.14
2023-03-16T23:03:50.944Z,53.66
2023-03-16T23:06:21.997Z,53.73
2023-03-16T23:08:50.124Z,54.91
2023-03-16T23:11:21.623Z,55.27
2023-03-16T23:13:49.040Z,54.84
2023-03-16T23:16:21.975Z,54.02
2023-03-16T23:18:50.100Z,54.99
2023-03-16T23:21:21.584Z,54.26
2023-03-16T23:24:02.688Z,55.13
2023-03-16T23:26:31.527Z,55.16
2023-03-16T23:28:59.810Z,53.94
2023-03-16T23:31:28.288Z,54.63
2023-03-16T23:33:56.056Z,54.68
2023-03-16T23:36:25.894Z,54.01
2023-03-16T23:38:53.587Z,54.59
2023-03-16T23:41:23.605Z,56.00
2023-03-16T23:43:52.046Z,54.83
2023-03-16T23:46:23.618Z,55.55
2023-03-16T23:48:53.351Z,54.90
2023-03-16T23:51:25.595Z,54.38
2023-03-16T23:53:54.585Z,54.81
2023-03-16T23:56:22.538Z,55.23
2023-03-16T23:58:50.667Z,55.90
